createdAt,value
2019-02-07T00:01:02.644Z,-3.36
2019-02-07T00:03:30.853Z,-3.36
2019-02-07T00:05:58.825Z,-3.42
2019-02-07T00:08:26.886Z,-3.41
2019-02-07T00:10:54.904Z,-3.42
2019-02-07T00:13:23.047Z,-3.43
2019-02-07T00:15:51.266Z,-3.52
2019-02-07T00:18:19.369Z,-3.48
2019-02-07T00:20:47.457Z,-3.49
2019-02-07T00:23:15.779Z,-3.49
2019-02-07T00:25:44.062Z,-3.53
2019-02-07T00:28:12.433Z,-3.55
2019-02-07T00:30:40.497Z,-3.56
2019-02-07T00:33:08.239Z,-3.64
2019-02-07T00:35:36.220Z,-3.59
2019-02-07T00:38:04.359Z,-3.71
2019-02-07T00:40:32.074Z,-3.61
2019-02-07T00:43:00.070Z,-3.64
2019-02-07T00:45:28.311Z,-3.68
2019-02-07T00:47:56.214Z,-3.77
2019-02-07T00:50:24.345Z,-3.84
2019-02-07T00:52:52.101Z,-3.83
2019-02-07T00:55:20.473Z,-3.80
2019-02-07T00:57:48.425Z,-3.84
2019-02-07T01:00:19.313Z,-3.87
2019-02-07T01:02:47.260Z,-3.80
2019-02-07T01:05:15.944Z,-3.80
2019-02-07T01:07:44.058Z,-3.88
2019-02-07T01:10:13.059Z,-3.92
2019-02-07T01:12:41.282Z,-3.91
2019-02-07T01:15:09.871Z,-3.94
2019-02-07T01:17:37.734Z,-4.01
2019-02-07T01:20:06.737Z,-4.00
2019-02-07T01:22:34.716Z,-4.02
2019-02-07T01:25:03.030Z,-4.09
2019-02-07T01:27:31.333Z,-4.16
2019-02-07T01:29:59.228Z,-4.13
2019-02-07T01:32:27.209Z,-4.08
2019-02-07T01:34:55.236Z,-4.06
2019-02-07T01:37:23.211Z,-4.14
2019-02-07T01:39:51.148Z,-4.16
2019-02-07T01:42:19.028Z,-4.14
2019-02-07T01:44:47.357Z,-4.16
2019-02-07T01:47:15.398Z,-4.19
2019-02-07T01:49:43.213Z,-4.22
2019-02-07T01:52:11.302Z,-4.20
2019-02-07T01:54:39.366Z,-4.18
2019-02-07T01:57:07.483Z,-4.18
2019-02-07T01:59:35.388Z,-4.17
2019-02-07T02:02:03.714Z,-4.18
2019-02-07T02:04:31.783Z,-4.24
2019-02-07T02:06:59.725Z,-4.23
2019-02-07T02:09:27.779Z,-4.16
2019-02-07T02:11:55.644Z,-4.22
2019-02-07T02:14:23.507Z,-4.22
2019-02-07T02:16:51.395Z,-4.22
2019-02-07T02:19:20.354Z,-4.20
2019-02-07T02:21:48.571Z,-4.24
2019-02-07T02:24:16.686Z,-4.22
2019-02-07T02:26:44.709Z,-4.23
2019-02-07T02:29:12.869Z,-4.25
2019-02-07T02:31:40.906Z,-4.31
2019-02-07T02:34:09.186Z,-4.30
2019-02-07T02:36:37.146Z,-4.33
2019-02-07T02:39:07.593Z,-4.37
2019-02-07T02:41:35.583Z,-4.38
2019-02-07T02:44:03.651Z,-4.37
2019-02-07T02:46:31.720Z,-4.35
2019-02-07T02:48:59.623Z,-4.37
2019-02-07T02:51:27.903Z,-4.39
2019-02-07T02:53:58.200Z,-4.43
2019-02-07T02:56:26.068Z,-4.48
2019-02-07T02:58:56.795Z,-4.48
2019-02-07T03:01:44.082Z,-4.55
2019-02-07T03:04:23.843Z,-4.55
2019-02-07T03:07:09.650Z,-4.55
2019-02-07T03:09:55.515Z,-4.60
2019-02-07T03:12:54.845Z,-4.55
2019-02-07T03:15:49.272Z,-4.61
2019-02-07T03:18:29.259Z,-4.63
2019-02-07T03:21:11.802Z,-4.68
2019-02-07T03:24:02.139Z,-4.74
2019-02-07T03:26:48.440Z,-4.75
2019-02-07T03:29:38.995Z,-4.84
2019-02-07T03:32:29.946Z,-4.80
2019-02-07T03:35:15.859Z,-4.81
2019-02-07T03:38:15.548Z,-4.77
2019-02-07T03:40:52.036Z,-4.80
2019-02-07T03:43:38.211Z,-4.78
2019-02-07T03:46:28.574Z,-4.83
2019-02-07T03:49:23.071Z,-4.81
2019-02-07T03:52:08.883Z,-4.86
2019-02-07T03:54:54.918Z,-4.86
2019-02-07T03:57:42.360Z,-4.94
2019-02-07T04:00:30.077Z,-4.97
2019-02-07T04:03:16.357Z,-4.92
2019-02-07T04:06:06.815Z,-4.95
2019-02-07T04:08:52.893Z,-4.93
2019-02-07T04:11:39.066Z,-4.93
2019-02-07T04:14:32.471Z,-4.93
2019-02-07T04:17:14.140Z,-4.98
2019-02-07T04:20:00.366Z,-5.03
2019-02-07T04:22:36.906Z,-5.06
2019-02-07T04:25:22.769Z,-4.99
2019-02-07T04:28:13.565Z,-5.03
2019-02-07T04:30:59.871Z,-5.09
2019-02-07T04:33:46.126Z,-5.10
2019-02-07T04:36:35.376Z,-5.12
2019-02-07T04:39:44.645Z,-5.12
2019-02-07T04:42:35.010Z,-5.12
2019-02-07T04:45:26.640Z,-5.14
2019-02-07T04:48:12.445Z,-5.15
2019-02-07T04:51:18.444Z,-5.11
2019-02-07T04:54:12.856Z,-5.18
2019-02-07T04:56:52.001Z,-5.20
2019-02-07T04:59:45.363Z,-5.20
2019-02-07T05:02:51.297Z,-5.23
2019-02-07T05:05:53.668Z,-5.23
2019-02-07T05:08:56.343Z,-5.21
2019-02-07T05:11:43.179Z,-5.27
2019-02-07T05:14:26.938Z,-5.34
2019-02-07T05:17:29.347Z,-5.30
2019-02-07T05:20:15.583Z,-5.31
2019-02-07T05:23:01.900Z,-5.30
2019-02-07T05:25:49.710Z,-5.33
2019-02-07T05:28:49.049Z,-5.33
2019-02-07T05:31:35.238Z,-5.37
2019-02-07T05:34:28.339Z,-5.37
2019-02-07T05:37:06.931Z,-5.39
2019-02-07T05:39:54.019Z,-5.41
2019-02-07T05:42:39.926Z,-5.38
2019-02-07T05:45:43.654Z,-5.38
2019-02-07T05:48:37.395Z,-5.37
2019-02-07T05:51:27.773Z,-5.42
2019-02-07T05:54:18.484Z,-5.43
2019-02-07T05:57:08.972Z,-5.46
2019-02-07T06:00:02.190Z,-5.45
2019-02-07T06:02:36.444Z,-5.53
2019-02-07T06:05:23.156Z,-5.51
2019-02-07T06:08:13.364Z,-5.57
2019-02-07T06:10:59.304Z,-5.50
2019-02-07T06:14:02.053Z,-5.52
2019-02-07T06:16:48.056Z,-5.53
2019-02-07T06:19:45.148Z,-5.49
2019-02-07T06:22:32.540Z,-5.58
2019-02-07T06:25:29.205Z,-5.57
2019-02-07T06:28:14.377Z,-5.50
2019-02-07T06:31:17.062Z,-5.49
2019-02-07T06:34:09.739Z,-5.58
2019-02-07T06:37:04.272Z,-5.42
2019-02-07T06:39:45.935Z,-5.32
2019-02-07T06:42:32.710Z,-5.17
2019-02-07T06:45:09.835Z,-5.02
2019-02-07T06:47:56.115Z,-4.82
2019-02-07T06:50:49.367Z,-4.70
2019-02-07T06:53:39.719Z,-4.58
2019-02-07T06:56:26.073Z,-4.30
2019-02-07T06:59:19.644Z,-4.12
2019-02-07T07:02:05.357Z,-3.93
2019-02-07T07:04:52.761Z,-3.79
2019-02-07T07:07:55.052Z,-3.65
2019-02-07T07:10:51.190Z,-3.53
2019-02-07T07:13:25.513Z,-3.35
2019-02-07T07:16:08.336Z,-2.99
2019-02-07T07:18:58.583Z,-2.78
2019-02-07T07:21:52.780Z,-2.49
2019-02-07T07:24:35.833Z,-2.27
2019-02-07T07:27:18.746Z,-1.92
2019-02-07T07:30:04.449Z,-1.65
2019-02-07T07:33:00.461Z,-1.56
2019-02-07T07:35:53.734Z,-1.18
2019-02-07T07:38:40.170Z,-0.82
2019-02-07T07:41:30.155Z,-0.74
2019-02-07T07:44:17.516Z,-0.38
2019-02-07T07:47:03.420Z,-0.42
2019-02-07T07:49:59.774Z,-0.48
2019-02-07T07:52:52.110Z,-0.12
2019-02-07T07:55:32.132Z,-0.16
2019-02-07T07:58:18.649Z,0.15
2019-02-07T08:01:21.007Z,0.29
2019-02-07T08:04:08.554Z,0.42
2019-02-07T08:06:51.980Z,0.47
2019-02-07T08:09:40.063Z,0.83
2019-02-07T08:12:27.096Z,1.06
2019-02-07T08:15:13.129Z,1.36
2019-02-07T08:17:58.780Z,1.40
2019-02-07T08:20:46.352Z,1.73
2019-02-07T08:23:22.241Z,1.74
2019-02-07T08:26:03.592Z,2.05
2019-02-07T08:28:51.733Z,2.11
2019-02-07T08:31:48.005Z,2.30
2019-02-07T08:34:38.473Z,2.72
2019-02-07T08:37:43.950Z,2.35
2019-02-07T08:40:42.041Z,2.93
2019-02-07T08:43:44.597Z,2.89
2019-02-07T08:46:31.307Z,3.42
2019-02-07T08:49:24.347Z,3.49
2019-02-07T08:52:10.602Z,3.23
2019-02-07T08:54:49.171Z,3.67
2019-02-07T08:57:35.132Z,3.84
2019-02-07T09:00:37.975Z,4.29
2019-02-07T09:03:40.721Z,4.56
2019-02-07T09:06:22.829Z,4.37
2019-02-07T09:09:19.496Z,4.21
2019-02-07T09:12:12.795Z,4.19
2019-02-07T09:14:59.450Z,5.01
2019-02-07T09:17:52.808Z,4.72
2019-02-07T09:20:27.825Z,4.70
2019-02-07T09:23:03.552Z,5.18
2019-02-07T09:26:05.943Z,5.16
2019-02-07T09:29:11.485Z,5.26
2019-02-07T09:31:58.924Z,5.46
2019-02-07T09:34:46.398Z,5.42
2019-02-07T09:37:45.742Z,5.44
2019-02-07T09:40:32.904Z,5.37
2019-02-07T09:43:18.802Z,5.72
2019-02-07T09:46:05.913Z,5.69
2019-02-07T09:49:01.791Z,5.94
2019-02-07T09:51:43.528Z,6.02
2019-02-07T09:54:45.883Z,6.04
2019-02-07T09:57:42.185Z,6.11
2019-02-07T10:00:34.092Z,6.07
2019-02-07T10:03:24.677Z,6.16
2019-02-07T10:06:07.334Z,6.74
2019-02-07T10:08:48.746Z,6.14
2019-02-07T10:11:28.826Z,6.51
2019-02-07T10:14:22.655Z,6.58
2019-02-07T10:17:27.845Z,6.56
2019-02-07T10:20:27.099Z,5.97
2019-02-07T10:23:26.371Z,6.37
2019-02-07T10:26:22.951Z,6.78
2019-02-07T10:29:15.720Z,6.69
2019-02-07T10:32:11.645Z,6.57
2019-02-07T10:34:50.793Z,6.46
2019-02-07T10:37:37.882Z,6.46
2019-02-07T10:40:30.654Z,7.19
2019-02-07T10:43:17.820Z,6.98
2019-02-07T10:46:21.530Z,7.40
2019-02-07T10:49:09.604Z,7.70
2019-02-07T10:52:02.892Z,7.64
2019-02-07T10:54:49.382Z,7.16
2019-02-07T10:57:34.846Z,7.45
2019-02-07T11:00:24.235Z,7.48
2019-02-07T11:03:14.990Z,7.78
2019-02-07T11:06:01.800Z,8.05
2019-02-07T11:08:47.592Z,8.58
2019-02-07T11:11:37.369Z,8.28
2019-02-07T11:14:23.718Z,8.02
2019-02-07T11:17:00.689Z,8.12
2019-02-07T11:19:57.050Z,8.06
2019-02-07T11:22:33.744Z,8.08
2019-02-07T11:25:28.440Z,8.17
2019-02-07T11:28:27.377Z,8.29
2019-02-07T11:31:16.610Z,7.93
2019-02-07T11:34:03.798Z,7.92
2019-02-07T11:36:58.193Z,8.32
2019-02-07T11:39:47.951Z,9.10
2019-02-07T11:42:32.278Z,8.63
2019-02-07T11:45:30.746Z,8.88
2019-02-07T11:48:21.904Z,9.23
2019-02-07T11:51:22.150Z,9.28
2019-02-07T11:54:09.314Z,9.34
2019-02-07T11:57:11.555Z,9.49
2019-02-07T11:59:58.628Z,9.83
2019-02-07T12:02:57.618Z,9.41
2019-02-07T12:05:46.785Z,9.29
2019-02-07T12:08:36.855Z,9.47
2019-02-07T12:11:23.256Z,9.42
2019-02-07T12:13:59.893Z,9.81
2019-02-07T12:16:51.740Z,9.77
2019-02-07T12:19:44.779Z,9.70
2019-02-07T12:22:28.818Z,9.68
2019-02-07T12:25:19.162Z,10.00
2019-02-07T12:28:06.024Z,9.99
2019-02-07T12:31:11.308Z,9.95
2019-02-07T12:33:51.385Z,9.91
2019-02-07T12:36:41.375Z,9.84
2019-02-07T12:39:26.063Z,9.99
2019-02-07T12:42:27.875Z,9.92
2019-02-07T12:45:09.468Z,9.92
2019-02-07T12:47:47.918Z,9.86
2019-02-07T12:50:37.902Z,10.24
2019-02-07T12:53:19.450Z,10.18
2019-02-07T12:56:22.537Z,9.95
2019-02-07T12:59:09.608Z,9.77
2019-02-07T13:01:45.100Z,9.90
2019-02-07T13:04:31.883Z,10.12
2019-02-07T13:07:19.061Z,10.17
2019-02-07T13:10:07.225Z,10.24
2019-02-07T13:12:51.627Z,10.05
2019-02-07T13:15:38.830Z,10.03
2019-02-07T13:18:18.062Z,10.20
2019-02-07T13:21:05.300Z,10.41
2019-02-07T13:23:59.432Z,10.07
2019-02-07T13:26:49.683Z,9.65
2019-02-07T13:29:43.530Z,9.49
2019-02-07T13:32:46.042Z,9.64
2019-02-07T13:35:39.560Z,9.37
2019-02-07T13:38:25.472Z,9.36
2019-02-07T13:41:12.664Z,9.04
2019-02-07T13:44:02.590Z,9.02
2019-02-07T13:46:55.783Z,9.01
2019-02-07T13:49:52.094Z,9.10
2019-02-07T13:52:43.737Z,8.71
2019-02-07T13:55:39.862Z,8.73
2019-02-07T13:58:43.609Z,8.86
2019-02-07T14:01:29.413Z,8.37
2019-02-07T14:04:09.787Z,8.02
2019-02-07T14:06:55.625Z,8.42
2019-02-07T14:09:41.419Z,8.39
2019-02-07T14:12:19.777Z,8.21
2019-02-07T14:15:04.060Z,7.97
2019-02-07T14:17:50.307Z,7.85
2019-02-07T14:20:35.904Z,7.38
2019-02-07T14:23:23.111Z,7.30
2019-02-07T14:26:08.994Z,7.45
2019-02-07T14:29:11.286Z,7.31
2019-02-07T14:32:07.564Z,7.45
2019-02-07T14:34:54.478Z,7.04
2019-02-07T14:37:41.548Z,7.00
2019-02-07T14:40:31.838Z,6.97
2019-02-07T14:43:17.206Z,6.91
2019-02-07T14:46:10.045Z,7.14
2019-02-07T14:48:37.666Z,7.05
2019-02-07T14:51:05.266Z,6.75
2019-02-07T14:53:32.825Z,6.53
2019-02-07T14:56:00.455Z,6.47
2019-02-07T14:58:28.034Z,6.54
2019-02-07T15:00:55.688Z,6.58
2019-02-07T15:03:23.869Z,6.65
2019-02-07T15:05:51.458Z,6.51
2019-02-07T15:08:19.048Z,6.43
2019-02-07T15:10:46.640Z,6.13
2019-02-07T15:13:14.298Z,6.12
2019-02-07T15:15:41.884Z,6.06
2019-02-07T15:18:09.529Z,6.21
2019-02-07T15:20:37.398Z,6.06
2019-02-07T15:23:05.099Z,5.91
2019-02-07T15:25:32.711Z,5.61
2019-02-07T15:28:00.368Z,5.32
2019-02-07T15:30:27.914Z,5.29
2019-02-07T15:32:55.547Z,5.12
2019-02-07T15:35:29.557Z,5.05
2019-02-07T15:37:57.701Z,4.86
2019-02-07T15:40:25.755Z,4.57
2019-02-07T15:42:53.961Z,4.27
2019-02-07T15:45:21.951Z,4.02
2019-02-07T15:47:49.603Z,4.09
2019-02-07T15:50:20.313Z,4.05
2019-02-07T15:52:48.631Z,3.88
2019-02-07T15:55:16.334Z,3.88
2019-02-07T15:57:43.994Z,3.77
2019-02-07T16:00:33.268Z,3.54
2019-02-07T16:03:04.572Z,3.29
2019-02-07T16:05:32.653Z,3.27
2019-02-07T16:08:00.378Z,3.18
2019-02-07T16:10:28.046Z,3.00
2019-02-07T16:12:55.673Z,2.74
2019-02-07T16:15:23.261Z,2.74
2019-02-07T16:17:50.910Z,2.59
2019-02-07T16:20:18.695Z,2.57
2019-02-07T16:22:46.635Z,2.46
2019-02-07T16:25:14.617Z,2.34
2019-02-07T16:27:42.404Z,2.27
2019-02-07T16:30:12.389Z,2.10
2019-02-07T16:32:40.131Z,1.90
2019-02-07T16:35:09.098Z,1.83
2019-02-07T16:37:36.978Z,1.83
2019-02-07T16:40:05.791Z,1.82
2019-02-07T16:42:33.397Z,1.72
2019-02-07T16:45:00.967Z,1.60
2019-02-07T16:47:29.682Z,1.49
2019-02-07T16:49:57.442Z,1.46
2019-02-07T16:52:25.051Z,1.36
2019-02-07T16:54:54.898Z,1.32
2019-02-07T16:57:22.650Z,1.24
2019-02-07T16:59:50.282Z,1.20
2019-02-07T17:02:18.026Z,1.10
2019-02-07T17:04:45.641Z,1.02
2019-02-07T17:07:13.408Z,0.98
2019-02-07T17:09:43.235Z,0.94
2019-02-07T17:12:11.487Z,0.87
2019-02-07T17:14:39.146Z,0.88
2019-02-07T17:17:06.732Z,0.84
2019-02-07T17:19:34.398Z,0.76
2019-02-07T17:22:02.000Z,0.73
2019-02-07T17:24:29.656Z,0.69
2019-02-07T17:26:57.239Z,0.66
2019-02-07T17:29:25.187Z,0.61
2019-02-07T17:31:53.143Z,0.50
2019-02-07T17:34:22.168Z,0.50
2019-02-07T17:36:50.739Z,0.45
2019-02-07T17:39:18.884Z,0.41
2019-02-07T17:41:49.503Z,0.36
2019-02-07T17:44:17.535Z,0.33
2019-02-07T17:46:45.155Z,0.35
2019-02-07T17:49:14.826Z,0.26
2019-02-07T17:51:42.346Z,0.21
2019-02-07T17:54:18.648Z,0.22
2019-02-07T17:56:39.503Z,0.27
2019-02-07T17:59:07.437Z,0.25
2019-02-07T18:01:35.484Z,0.21
2019-02-07T18:04:03.454Z,0.00
2019-02-07T18:06:31.324Z,-0.16
2019-02-07T18:08:59.421Z,-0.26
2019-02-07T18:11:26.996Z,-0.29
2019-02-07T18:13:54.531Z,-0.27
2019-02-07T18:16:22.116Z,-0.22
2019-02-07T18:18:49.987Z,-0.16
2019-02-07T18:21:17.528Z,-0.15
2019-02-07T18:23:45.083Z,-0.14
2019-02-07T18:26:12.750Z,-0.13
2019-02-07T18:28:40.331Z,-0.13
2019-02-07T18:31:07.953Z,-0.14
2019-02-07T18:33:35.608Z,-0.16
2019-02-07T18:36:03.298Z,-0.17
2019-02-07T18:38:30.846Z,-0.11
2019-02-07T18:40:58.511Z,-0.13
2019-02-07T18:43:26.013Z,-0.13
2019-02-07T18:45:53.652Z,-0.19
2019-02-07T18:48:21.209Z,-0.20
2019-02-07T18:50:50.569Z,-0.30
2019-02-07T18:53:18.278Z,-0.47
2019-02-07T18:55:45.994Z,-0.55
2019-02-07T18:58:13.611Z,-0.58
2019-02-07T19:00:41.319Z,-0.55
2019-02-07T19:03:08.954Z,-0.54
2019-02-07T19:05:36.661Z,-0.52
2019-02-07T19:08:04.444Z,-0.49
2019-02-07T19:10:32.081Z,-0.55
2019-02-07T19:13:00.213Z,-0.58
2019-02-07T19:15:34.968Z,-0.54
2019-02-07T19:18:02.762Z,-0.53
2019-02-07T19:20:30.339Z,-0.51
2019-02-07T19:22:59.601Z,-0.52
2019-02-07T19:25:27.170Z,-0.52
2019-02-07T19:27:55.471Z,-0.56
2019-02-07T19:30:25.832Z,-0.56
2019-02-07T19:32:53.597Z,-0.62
2019-02-07T19:35:21.177Z,-0.64
2019-02-07T19:37:48.869Z,-0.76
2019-02-07T19:40:16.511Z,-0.91
2019-02-07T19:42:45.341Z,-0.87
2019-02-07T19:45:13.785Z,-0.80
2019-02-07T19:47:41.545Z,-0.78
2019-02-07T19:50:12.092Z,-0.78
2019-02-07T19:52:39.825Z,-0.75
2019-02-07T19:55:10.475Z,-0.77
2019-02-07T19:57:38.112Z,-0.77
2019-02-07T20:00:08.845Z,-0.77
2019-02-07T20:02:39.425Z,-0.78
2019-02-07T20:05:07.899Z,-0.83
2019-02-07T20:07:35.510Z,-0.94
2019-02-07T20:10:05.125Z,-0.89
2019-02-07T20:12:32.779Z,-0.91
2019-02-07T20:15:00.375Z,-0.91
2019-02-07T20:17:28.388Z,-0.91
2019-02-07T20:19:55.964Z,-0.91
2019-02-07T20:22:23.710Z,-0.91
2019-02-07T20:24:51.305Z,-0.93
2019-02-07T20:27:18.893Z,-0.93
2019-02-07T20:29:46.826Z,-0.95
2019-02-07T20:32:14.997Z,-0.95
2019-02-07T20:34:42.970Z,-0.96
2019-02-07T20:37:11.138Z,-1.01
2019-02-07T20:39:39.931Z,-1.00
2019-02-07T20:42:07.986Z,-1.00
2019-02-07T20:44:35.901Z,-0.99
2019-02-07T20:47:03.954Z,-1.12
2019-02-07T20:49:32.017Z,-1.17
2019-02-07T20:52:00.074Z,-1.20
2019-02-07T20:54:28.191Z,-1.36
2019-02-07T20:56:56.612Z,-1.33
2019-02-07T20:59:24.583Z,-1.36
2019-02-07T21:01:52.455Z,-1.39
2019-02-07T21:04:20.447Z,-1.38
2019-02-07T21:06:48.495Z,-1.39
2019-02-07T21:09:16.421Z,-1.39
2019-02-07T21:11:44.384Z,-1.36
2019-02-07T21:14:12.579Z,-1.36
2019-02-07T21:16:40.759Z,-1.34
2019-02-07T21:19:08.762Z,-1.34
2019-02-07T21:21:36.654Z,-1.37
2019-02-07T21:24:04.862Z,-1.33
2019-02-07T21:26:32.868Z,-1.37
2019-02-07T21:29:00.791Z,-1.34
2019-02-07T21:31:29.138Z,-1.42
2019-02-07T21:33:58.271Z,-1.56
2019-02-07T21:36:26.314Z,-1.70
2019-02-07T21:38:54.294Z,-1.79
2019-02-07T21:41:22.396Z,-1.72
2019-02-07T21:43:50.236Z,-1.62
2019-02-07T21:46:18.233Z,-1.60
2019-02-07T21:48:46.502Z,-1.71
2019-02-07T21:51:14.550Z,-1.64
2019-02-07T21:53:42.566Z,-1.67
2019-02-07T21:56:10.607Z,-1.63
2019-02-07T21:58:38.593Z,-1.62
2019-02-07T22:01:06.638Z,-1.60
2019-02-07T22:03:34.722Z,-1.61
2019-02-07T22:06:02.840Z,-1.60
2019-02-07T22:08:30.840Z,-1.61
2019-02-07T22:10:58.831Z,-1.56
2019-02-07T22:13:26.924Z,-1.53
2019-02-07T22:15:54.974Z,-1.56
2019-02-07T22:18:23.007Z,-1.56
2019-02-07T22:20:51.044Z,-1.57
2019-02-07T22:23:19.229Z,-1.54
2019-02-07T22:25:47.857Z,-1.58
2019-02-07T22:28:15.908Z,-1.57
2019-02-07T22:30:43.856Z,-1.53
2019-02-07T22:33:11.749Z,-1.57
2019-02-07T22:35:39.735Z,-1.56
2019-02-07T22:38:08.083Z,-1.63
2019-02-07T22:40:36.568Z,-1.87
2019-02-07T22:43:04.910Z,-1.84
2019-02-07T22:45:33.033Z,-1.76
2019-02-07T22:48:01.093Z,-1.84
2019-02-07T22:50:29.237Z,-1.83
2019-02-07T22:52:57.480Z,-1.80
2019-02-07T22:55:25.350Z,-1.75
2019-02-07T22:57:53.519Z,-1.72
2019-02-07T23:01:11.988Z,-1.76
2019-02-07T23:03:49.420Z,-1.73
2019-02-07T23:06:18.489Z,-1.69
2019-02-07T23:08:46.376Z,-1.67
2019-02-07T23:11:14.266Z,-1.65
2019-02-07T23:13:42.018Z,-1.60
2019-02-07T23:16:10.117Z,-1.66
2019-02-07T23:18:38.347Z,-1.61
2019-02-07T23:21:06.951Z,-1.72
2019-02-07T23:23:35.928Z,-1.70
2019-02-07T23:26:05.754Z,-1.81
2019-02-07T23:28:33.908Z,-1.80
2019-02-07T23:31:02.025Z,-1.77
2019-02-07T23:33:29.966Z,-1.70
2019-02-07T23:35:58.339Z,-1.68
2019-02-07T23:38:26.338Z,-1.73
2019-02-07T23:40:54.278Z,-1.66
2019-02-07T23:43:22.166Z,-1.68
2019-02-07T23:45:50.275Z,-1.67
2019-02-07T23:48:18.297Z,-1.70
2019-02-07T23:50:46.215Z,-1.70
2019-02-07T23:53:15.317Z,-1.69
2019-02-07T23:55:43.413Z,-1.73
2019-02-07T23:58:11.515Z,-1.71
